Miami, Florida
Current Conditions -  °F | °C
As of 5:53 PM on Saturday 25 Oct 2014 (Local Time) from KMIA Reporting Station
Scattered Clouds Scattered Clouds  
Wind Chill: 79°   Ceiling: Unl
Heat Index: 80°   Visibility: 10mi
Dew Point: 61°   Wind: 9mph
Humidity: 54%   Direction: 40°NE
Pressure: 29.89"   Gusts: NA
Location:  25.77°N, 80.19°W
Report Text: KMIA 252153Z 04008KT 10SM SCT055 SCT300 26/16 A2989 RMK AO2 SLP122 T02610161
Loading
Personal Weather Stations






























Interactive Weather Map New forecast layout! Learn more

10-Day Weather Forecast

Advertisements
Track Severe Weather on mobile